Time;durP1;ratioP1;P1;durP2;ratioP2;P2;SDS_P1;SDS_P2;PMS_P1;PMS_P2;Temp;Humidity;BMP_temperature;BMP_pressure;BME280_temperature;BME280_humidity;BME280_pressure;Samples;Min_cycle;Max_cycle;Signal;HPM_P1;HPM_P2
2022/09/21 00:01:28;;;;;;;;;;;;;;;12.80;58.44;101540.53;4967946;28;7009;-77
2022/09/21 00:03:58;;;;;;;;;;;;;;;12.76;58.66;101534.34;4981073;28;7134;-77
2022/09/21 00:06:27;;;;;;;;;;;;;;;12.73;58.49;101538.41;4984599;28;6972;-77
2022/09/21 00:08:56;;;;;;;;;;;;;;;12.72;59.38;101534.06;4970352;28;6991;-77
2022/09/21 00:11:28;;;;;;;;;;;;;;;12.72;59.32;101536.63;4982031;28;7035;-77
2022/09/21 00:14:06;;;;;;;;;;;;;;;12.71;58.72;101538.34;4965220;28;7151;-77
2022/09/21 00:16:32;;;;;;;;;;;;;;;12.68;59.22;101534.72;4983755;28;7221;-77
2022/09/21 00:18:59;;;;;;;;;;;;;;;12.68;58.76;101532.13;4982005;28;8040;-77
2022/09/21 00:21:26;;;;;;;;;;;;;;;12.63;58.60;101529.31;4982680;28;6852;-78
2022/09/21 00:23:53;;;;;;;;;;;;;;;12.61;59.02;101539.50;4968814;28;7051;-77
2022/09/21 00:26:22;;;;;;;;;;;;;;;12.59;59.30;101538.50;4982066;28;7205;-77
2022/09/21 00:28:54;;;;;;;;;;;;;;;12.57;58.49;101540.13;4980411;28;7188;-77
2022/09/21 00:31:20;;;;;;;;;;;;;;;12.55;59.03;101538.25;4994279;28;7022;-77
2022/09/21 00:33:46;;;;;;;;;;;;;;;12.52;58.74;101538.94;4982618;28;8562;-77
2022/09/21 00:36:18;;;;;;;;;;;;;;;12.51;58.95;101542.31;4982452;28;7177;-77
2022/09/21 00:38:49;;;;;;;;;;;;;;;12.51;59.87;101544.91;4983152;28;7254;-77
2022/09/21 00:41:14;;;;;;;;;;;;;;;12.49;59.63;101543.94;4982566;28;7234;-77
2022/09/21 00:44:18;;;;;;;;;;;;;;;12.47;59.23;101546.41;4966348;28;7035;-77
2022/09/21 00:46:48;;;;;;;;;;;;;;;12.44;59.19;101550.47;4995381;28;7457;-77
2022/09/21 00:49:14;;;;;;;;;;;;;;;12.41;59.26;101545.16;4978514;28;6800;-77
2022/09/21 00:51:41;;;;;;;;;;;;;;;12.40;59.05;101549.41;4982005;28;6987;-77
2022/09/21 00:54:22;;;;;;;;;;;;;;;12.38;59.25;101544.97;4986257;28;6808;-77
2022/09/21 00:56:48;;;;;;;;;;;;;;;12.34;59.56;101537.06;4982890;28;7069;-77
2022/09/21 00:59:17;;;;;;;;;;;;;;;12.35;59.00;101541.41;4984543;28;7101;-77
2022/09/21 01:01:43;;;;;;;;;;;;;;;12.32;59.38;101537.81;4981188;28;7247;-80
2022/09/21 01:04:10;;;;;;;;;;;;;;;12.29;59.64;101535.94;4985716;28;7266;-78
2022/09/21 01:06:38;;;;;;;;;;;;;;;12.26;58.88;101540.00;4982165;28;7234;-77
2022/09/21 01:09:04;;;;;;;;;;;;;;;12.22;58.78;101537.25;4982274;28;6893;-78
2022/09/21 01:12:03;;;;;;;;;;;;;;;12.17;59.13;101540.34;4985819;28;7266;-78
2022/09/21 01:14:47;;;;;;;;;;;;;;;12.11;59.62;101535.69;4998976;28;6812;-78
2022/09/21 01:17:37;;;;;;;;;;;;;;;12.08;59.59;101541.56;5000068;28;6812;-78
2022/09/21 01:20:42;;;;;;;;;;;;;;;12.03;59.69;101537.81;4994076;28;7219;-78
2022/09/21 01:23:29;;;;;;;;;;;;;;;12.01;59.33;101535.91;4984145;28;7199;-78
2022/09/21 01:26:42;;;;;;;;;;;;;;;11.97;59.59;101533.97;4980447;28;6974;-78
2022/09/21 01:29:41;;;;;;;;;;;;;;;11.93;59.81;101533.78;4901261;29;7338;-78
2022/09/21 01:32:30;;;;;;;;;;;;;;;11.91;59.69;101537.91;4966971;28;6871;-78
2022/09/21 01:35:16;;;;;;;;;;;;;;;11.91;59.45;101540.50;4983143;28;7232;-78
2022/09/21 01:37:57;;;;;;;;;;;;;;;11.90;59.61;101527.56;4984306;28;7372;-78
2022/09/21 01:40:43;;;;;;;;;;;;;;;11.86;58.88;101534.22;4965589;28;7021;-78
2022/09/21 01:43:24;;;;;;;;;;;;;;;11.81;59.04;101536.50;4984129;28;7078;-78
2022/09/21 01:45:54;;;;;;;;;;;;;;;11.78;58.85;101526.03;4990865;28;7240;-78
2022/09/21 01:48:24;;;;;;;;;;;;;;;11.78;59.44;101528.59;4969179;28;7019;-78
2022/09/21 01:50:55;;;;;;;;;;;;;;;11.76;58.88;101527.59;4978555;28;7133;-78
2022/09/21 01:53:36;;;;;;;;;;;;;;;11.74;58.82;101525.75;4964091;28;6986;-78
2022/09/21 01:56:34;;;;;;;;;;;;;;;11.71;59.28;101528.13;4983983;28;6823;-78
2022/09/21 01:59:20;;;;;;;;;;;;;;;11.69;60.06;101525.47;4974655;28;7234;-77
2022/09/21 02:01:56;;;;;;;;;;;;;;;11.71;60.24;101533.25;4981696;28;6988;-78
2022/09/21 02:04:22;;;;;;;;;;;;;;;11.70;59.93;101526.34;4961887;28;7001;-78
2022/09/21 02:06:50;;;;;;;;;;;;;;;11.73;59.93;101531.66;5001311;28;6784;-78
2022/09/21 02:09:16;;;;;;;;;;;;;;;11.72;60.08;101530.78;4980716;28;7188;-78
2022/09/21 02:11:43;;;;;;;;;;;;;;;11.72;60.03;101530.78;4991816;28;7301;-78
2022/09/21 02:14:21;;;;;;;;;;;;;;;11.73;59.74;101532.56;4980521;28;6800;-78
2022/09/21 02:17:19;;;;;;;;;;;;;;;11.72;60.14;101533.34;4962785;28;6833;-78
2022/09/21 02:20:29;;;;;;;;;;;;;;;11.70;60.25;101532.38;4997261;28;7209;-78
2022/09/21 02:23:28;;;;;;;;;;;;;;;11.68;60.25;101531.38;4965319;28;8215;-78
2022/09/21 02:26:08;;;;;;;;;;;;;;;11.67;60.19;101530.50;4996947;28;7018;-78
2022/09/21 02:28:50;;;;;;;;;;;;;;;11.65;60.32;101529.53;4972284;28;7011;-78
2022/09/21 02:32:12;;;;;;;;;;;;;;;11.64;60.11;101526.84;4974909;28;7004;-78
2022/09/21 02:34:49;;;;;;;;;;;;;;;11.61;59.97;101534.38;4942832;28;6995;-78
2022/09/21 02:37:23;;;;;;;;;;;;;;;11.60;60.03;101532.63;4958414;28;7306;-78
2022/09/21 02:40:10;;;;;;;;;;;;;;;11.58;59.54;101539.31;4979576;28;7039;-77
2022/09/21 02:42:41;;;;;;;;;;;;;;;11.56;59.87;101538.31;4962279;28;7169;-78
2022/09/21 02:45:21;;;;;;;;;;;;;;;11.53;59.70;101545.06;4978427;28;8843;-78
2022/09/21 02:48:08;;;;;;;;;;;;;;;11.49;59.61;101543.09;5001663;28;7018;-78
2022/09/21 02:51:08;;;;;;;;;;;;;;;11.44;59.28;101541.91;4980783;28;7177;-78
2022/09/21 02:53:39;;;;;;;;;;;;;;;11.41;59.22;101535.69;4958168;28;7271;-78
2022/09/21 02:56:08;;;;;;;;;;;;;;;11.37;59.64;101535.50;4965920;28;7030;-78
2022/09/21 02:58:41;;;;;;;;;;;;;;;11.36;59.33;101544.00;4983051;28;7183;-78
2022/09/21 03:01:11;;;;;;;;;;;;;;;11.32;59.76;101536.03;4979050;28;6907;-78
2022/09/21 03:03:37;;;;;;;;;;;;;;;11.31;59.56;101539.38;4982732;28;6792;-78
2022/09/21 03:06:03;;;;;;;;;;;;;;;11.29;59.74;101538.38;4987769;28;6978;-78
2022/09/21 03:08:29;;;;;;;;;;;;;;;11.27;60.11;101546.00;4976005;28;7102;-78
2022/09/21 03:10:56;;;;;;;;;;;;;;;11.26;59.75;101544.22;4986547;28;6855;-78
2022/09/21 03:13:23;;;;;;;;;;;;;;;11.22;60.06;101535.44;4983485;28;7394;-79
2022/09/21 03:15:49;;;;;;;;;;;;;;;11.20;59.57;101542.16;5002764;28;7429;-79
2022/09/21 03:18:15;;;;;;;;;;;;;;;11.15;59.76;101533.25;4971081;28;6974;-79
2022/09/21 03:20:44;;;;;;;;;;;;;;;11.12;59.16;101540.78;4985166;28;6979;-78
2022/09/21 03:23:11;;;;;;;;;;;;;;;11.07;59.24;101537.91;4986270;28;7011;-79
2022/09/21 03:25:37;;;;;;;;;;;;;;;11.02;59.33;101544.41;4978195;28;7219;-78
2022/09/21 03:28:03;;;;;;;;;;;;;;;10.98;59.35;101543.31;5002128;28;6772;-79
2022/09/21 03:30:31;;;;;;;;;;;;;;;10.94;59.63;101546.50;4982742;28;7140;-79
2022/09/21 03:32:57;;;;;;;;;;;;;;;10.93;59.27;101537.03;4971964;28;8534;-79
2022/09/21 03:35:26;;;;;;;;;;;;;;;10.93;59.99;101539.59;4990768;28;7011;-79
2022/09/21 03:37:54;;;;;;;;;;;;;;;10.94;60.02;101543.94;4987648;28;7212;-79
2022/09/21 03:40:19;;;;;;;;;;;;;;;10.94;60.04;101541.34;4987990;28;6982;-79
2022/09/21 03:42:45;;;;;;;;;;;;;;;10.93;59.49;101542.16;4991105;28;6780;-79
2022/09/21 03:45:12;;;;;;;;;;;;;;;10.93;60.15;101546.38;4992939;28;7290;-78
2022/09/21 03:47:39;;;;;;;;;;;;;;;10.93;60.28;101547.28;5014952;28;6792;-79
2022/09/21 03:50:06;;;;;;;;;;;;;;;10.92;59.87;101545.50;4979556;28;7012;-79
2022/09/21 03:52:32;;;;;;;;;;;;;;;10.91;60.25;101541.16;4972005;28;8595;-79
2022/09/21 03:54:57;;;;;;;;;;;;;;;10.90;60.19;101544.50;4991688;28;6780;-79
2022/09/21 03:57:24;;;;;;;;;;;;;;;10.90;59.80;101547.06;4990198;28;7034;-79
2022/09/21 03:59:49;;;;;;;;;;;;;;;10.89;60.33;101550.41;4989428;28;7351;-79
2022/09/21 04:02:15;;;;;;;;;;;;;;;10.89;60.17;101547.84;4971339;28;8595;-79
2022/09/21 04:04:41;;;;;;;;;;;;;;;10.89;60.33;101540.16;4989105;28;7266;-79
2022/09/21 04:07:07;;;;;;;;;;;;;;;10.91;60.38;101548.88;4987348;28;6787;-79
2022/09/21 04:09:32;;;;;;;;;;;;;;;10.94;60.56;101551.63;4988504;28;8516;-79
2022/09/21 04:11:58;;;;;;;;;;;;;;;10.99;60.58;101551.91;4987208;28;6808;-79
2022/09/21 04:14:24;;;;;;;;;;;;;;;11.03;60.63;101545.31;4972585;28;6902;-79
2022/09/21 04:16:50;;;;;;;;;;;;;;;11.04;60.13;101541.94;4983532;28;8412;-79
2022/09/21 04:19:21;;;;;;;;;;;;;;;11.03;60.44;101545.31;4985546;28;6819;-79
2022/09/21 04:21:46;;;;;;;;;;;;;;;11.02;60.37;101548.66;4966960;28;7818;-79
2022/09/21 04:24:12;;;;;;;;;;;;;;;11.03;59.74;101547.88;4994629;28;6998;-80
2022/09/21 04:26:39;;;;;;;;;;;;;;;11.02;60.41;101549.53;4986037;28;7205;-79
2022/09/21 04:29:05;;;;;;;;;;;;;;;10.98;59.76;101551.00;4966208;28;7300;-79
2022/09/21 04:31:32;;;;;;;;;;;;;;;10.96;59.84;101547.47;4981590;28;6840;-79
2022/09/21 04:33:58;;;;;;;;;;;;;;;10.96;59.95;101554.25;4990148;28;8502;-79
2022/09/21 04:36:27;;;;;;;;;;;;;;;10.93;60.04;101554.06;4991147;28;8510;-79
2022/09/21 04:38:52;;;;;;;;;;;;;;;10.93;59.39;101554.06;4968486;28;7050;-79
2022/09/21 04:41:19;;;;;;;;;;;;;;;10.90;59.93;101557.31;5002193;28;8459;-79
2022/09/21 04:43:47;;;;;;;;;;;;;;;10.90;60.35;101548.75;4984648;28;7301;-79
2022/09/21 04:46:16;;;;;;;;;;;;;;;10.90;60.46;101548.75;4987387;28;6970;-75
2022/09/21 04:48:42;;;;;;;;;;;;;;;10.93;60.82;101554.06;4968195;28;7301;-75
2022/09/21 04:51:10;;;;;;;;;;;;;;;10.94;60.77;101556.75;4988537;28;6940;-79
2022/09/21 04:53:38;;;;;;;;;;;;;;;10.99;61.01;101554.47;4975118;28;8451;-79
2022/09/21 04:56:05;;;;;;;;;;;;;;;11.02;61.09;101556.38;4987592;28;6879;-79
2022/09/21 04:58:32;;;;;;;;;;;;;;;11.06;60.42;101554.09;4989852;28;6848;-79
2022/09/21 05:00:58;;;;;;;;;;;;;;;11.10;60.81;101552.59;4987395;28;6808;-79
2022/09/21 05:03:25;;;;;;;;;;;;;;;11.12;60.65;101553.59;4988686;28;6773;-79
2022/09/21 05:05:54;;;;;;;;;;;;;;;11.15;60.21;101558.91;5001858;28;6973;-79
2022/09/21 05:11:06;;;;;;;;;;;;;;;11.22;60.48;101568.78;5004357;28;6800;-79
2022/09/21 05:13:32;;;;;;;;;;;;;;;11.24;60.16;101564.66;4987584;28;7594;-79
2022/09/21 05:15:57;;;;;;;;;;;;;;;11.28;60.09;101567.41;4986855;28;7302;-79
2022/09/21 05:18:23;;;;;;;;;;;;;;;11.32;60.67;101569.38;4985401;28;7023;-79
2022/09/21 05:20:56;;;;;;;;;;;;;;;11.35;60.36;101564.44;4997377;28;6992;-80
2022/09/21 05:23:23;;;;;;;;;;;;;;;11.36;60.64;101569.69;4985238;28;6800;-79
2022/09/21 05:25:49;;;;;;;;;;;;;;;11.41;60.32;101574.19;4982121;28;7194;-79
2022/09/21 05:28:17;;;;;;;;;;;;;;;11.42;60.53;101576.88;4959517;28;7337;-78
2022/09/21 05:30:50;;;;;;;;;;;;;;;11.43;60.19;101573.50;4973322;28;6982;-79
2022/09/21 05:33:20;;;;;;;;;;;;;;;11.48;60.91;101582.38;4972751;28;7193;-79
2022/09/21 05:36:29;;;;;;;;;;;;;;;11.53;60.61;101582.66;4971677;28;6994;-78
2022/09/21 05:38:55;;;;;;;;;;;;;;;11.58;60.58;101583.88;4983854;28;7489;-78
2022/09/21 05:41:22;;;;;;;;;;;;;;;11.62;60.63;101590.09;4986685;28;7216;-79
2022/09/21 05:43:48;;;;;;;;;;;;;;;11.69;60.61;101589.69;5000690;28;7321;-79
2022/09/21 05:46:48;;;;;;;;;;;;;;;11.74;60.92;101589.97;4983159;28;6951;-79
2022/09/21 05:49:20;;;;;;;;;;;;;;;11.77;61.31;101591.03;4986053;28;8448;-79
2022/09/21 05:52:31;;;;;;;;;;;;;;;11.84;60.87;101591.41;4999543;28;7511;-78
2022/09/21 05:55:42;;;;;;;;;;;;;;;11.91;60.64;101604.72;4963897;28;7315;-79
2022/09/21 05:58:39;;;;;;;;;;;;;;;11.95;60.79;101590.38;4978545;28;7726;-79
2022/09/21 06:01:58;;;;;;;;;;;;;;;12.03;61.06;101594.34;5003664;28;6887;-77
2022/09/21 06:04:24;;;;;;;;;;;;;;;12.13;60.85;101594.91;4977351;28;7293;-78
2022/09/21 06:06:50;;;;;;;;;;;;;;;12.21;61.22;101601.41;4975665;28;7221;-79
2022/09/21 06:09:15;;;;;;;;;;;;;;;12.28;61.50;101597.53;4968956;28;8422;-79
2022/09/21 06:11:41;;;;;;;;;;;;;;;12.36;61.53;101598.88;4970273;28;7177;-79
2022/09/21 06:14:07;;;;;;;;;;;;;;;12.44;61.69;101597.66;4986640;28;6848;-78
2022/09/21 06:16:40;;;;;;;;;;;;;;;12.50;61.22;101602.25;5002933;28;6948;-78
2022/09/21 06:19:09;;;;;;;;;;;;;;;12.57;60.82;101608.66;4970284;28;6965;-79
2022/09/21 06:21:35;;;;;;;;;;;;;;;12.62;61.04;101613.28;4970444;28;6999;-78
2022/09/21 06:24:01;;;;;;;;;;;;;;;12.68;61.44;101614.44;4980134;28;6986;-79
2022/09/21 06:26:27;;;;;;;;;;;;;;;12.77;61.09;101612.41;4998433;28;7041;-79
2022/09/21 06:28:54;;;;;;;;;;;;;;;12.87;61.18;101619.88;4984625;28;6983;-79
2022/09/21 06:31:19;;;;;;;;;;;;;;;12.96;61.60;101609.19;4963567;28;6983;-79
2022/09/21 06:33:45;;;;;;;;;;;;;;;13.05;61.16;101609.72;4963842;28;8659;-78
2022/09/21 06:36:11;;;;;;;;;;;;;;;13.14;60.80;101611.97;4983708;28;7017;-78
2022/09/21 06:38:36;;;;;;;;;;;;;;;13.24;61.52;101620.22;4983512;28;7261;-79
2022/09/21 06:41:03;;;;;;;;;;;;;;;13.34;61.22;101622.50;5004447;28;7357;-79
2022/09/21 06:43:30;;;;;;;;;;;;;;;13.46;61.93;101614.59;4982655;28;7124;-79
2022/09/21 06:45:59;;;;;;;;;;;;;;;13.60;61.38;101612.78;4978560;28;7449;-78
2022/09/21 06:48:27;;;;;;;;;;;;;;;13.74;61.37;101619.59;4996338;28;7489;-79
2022/09/21 06:51:00;;;;;;;;;;;;;;;13.89;61.37;101629.84;4964302;28;6975;-78
2022/09/21 06:53:28;;;;;;;;;;;;;;;14.02;61.21;101618.50;4979200;28;7592;-78
2022/09/21 06:56:01;;;;;;;;;;;;;;;14.17;61.45;101614.94;4983828;28;6867;-79
2022/09/21 06:58:26;;;;;;;;;;;;;;;14.29;61.22;101619.88;4967771;28;7211;-79
2022/09/21 07:00:52;;;;;;;;;;;;;;;14.40;60.94;101608.41;4974279;28;6804;-78
2022/09/21 07:03:18;;;;;;;;;;;;;;;14.51;61.11;101615.81;4962727;28;6955;-79
2022/09/21 07:05:45;;;;;;;;;;;;;;;14.60;61.02;101615.41;4975252;28;8416;-77
2022/09/21 07:08:11;;;;;;;;;;;;;;;14.70;60.82;101623.69;4980315;28;7291;-76
2022/09/21 07:10:36;;;;;;;;;;;;;;;14.80;61.19;101624.19;4983534;28;6772;-76
2022/09/21 07:13:04;;;;;;;;;;;;;;;14.91;61.26;101617.84;4982595;28;8004;-76
2022/09/21 07:15:31;;;;;;;;;;;;;;;15.02;60.49;101615.81;4984048;28;6976;-76
2022/09/21 07:17:57;;;;;;;;;;;;;;;15.08;60.06;101621.28;4966865;28;7051;-76
2022/09/21 07:20:23;;;;;;;;;;;;;;;15.10;59.70;101618.75;4984628;28;6792;-78
2022/09/21 07:22:49;;;;;;;;;;;;;;;15.10;59.89;101622.25;4975934;28;7780;-78
2022/09/21 07:25:14;;;;;;;;;;;;;;;15.09;60.14;101620.47;4969595;28;7199;-78
2022/09/21 07:27:40;;;;;;;;;;;;;;;15.06;59.28;101625.47;4968846;28;7244;-78
2022/09/21 07:30:08;;;;;;;;;;;;;;;15.04;59.35;101628.81;4982339;28;7261;-78
2022/09/21 07:32:35;;;;;;;;;;;;;;;15.03;60.03;101625.31;4981706;28;6980;-78
2022/09/21 07:35:01;;;;;;;;;;;;;;;15.03;59.75;101627.03;4984705;28;6852;-78
2022/09/21 07:37:29;;;;;;;;;;;;;;;15.05;59.69;101620.25;4990603;28;6768;-78
2022/09/21 07:39:55;;;;;;;;;;;;;;;15.10;59.83;101619.66;4968343;28;6852;-78
2022/09/21 07:42:21;;;;;;;;;;;;;;;15.18;59.32;101626.91;4982016;28;7788;-78
2022/09/21 07:44:47;;;;;;;;;;;;;;;15.27;59.18;101623.03;4979299;28;6799;-78
2022/09/21 07:47:14;;;;;;;;;;;;;;;15.37;59.65;101626.06;5002694;28;7264;-79
2022/09/21 07:49:41;;;;;;;;;;;;;;;15.45;59.29;101618.69;4995745;28;6998;-78
2022/09/21 07:52:07;;;;;;;;;;;;;;;15.51;59.55;101619.88;4966120;28;6967;-78
2022/09/21 07:54:34;;;;;;;;;;;;;;;15.56;59.37;101627.84;4978576;28;7266;-78
2022/09/21 07:59:45;;;;;;;;;;;;;;;15.58;59.45;101623.63;5000691;28;6796;-76
2022/09/21 08:02:11;;;;;;;;;;;;;;;15.59;59.28;101621.91;4998175;28;7441;-75
2022/09/21 08:04:37;;;;;;;;;;;;;;;15.57;58.77;101616.69;4986348;28;6887;-76
2022/09/21 08:07:03;;;;;;;;;;;;;;;15.59;59.09;101622.81;4972942;28;7047;-76
2022/09/21 08:09:29;;;;;;;;;;;;;;;15.59;59.40;101624.50;4984175;28;6863;-75
2022/09/21 08:11:57;;;;;;;;;;;;;;;15.61;59.26;101617.72;4985754;28;7186;-75
2022/09/21 08:14:22;;;;;;;;;;;;;;;15.66;59.59;101626.56;4985571;28;6808;-75
2022/09/21 08:16:48;;;;;;;;;;;;;;;15.71;60.07;101629.38;4999427;28;6840;-76
2022/09/21 08:19:16;;;;;;;;;;;;;;;15.76;59.07;101627.91;5007720;28;7197;-75
2022/09/21 08:21:42;;;;;;;;;;;;;;;15.80;59.32;101622.94;4990759;28;6820;-75
2022/09/21 08:24:09;;;;;;;;;;;;;;;15.88;58.89;101632.72;4988114;28;7053;-75
2022/09/21 08:26:34;;;;;;;;;;;;;;;15.94;59.04;101633.03;4988315;28;6986;-75
2022/09/21 08:29:01;;;;;;;;;;;;;;;15.98;59.10;101628.91;4988957;28;7474;-75
2022/09/21 08:31:27;;;;;;;;;;;;;;;16.04;58.98;101636.94;4987995;28;7097;-75
2022/09/21 08:33:56;;;;;;;;;;;;;;;16.10;59.01;101634.63;5003464;28;7873;-76
2022/09/21 08:36:22;;;;;;;;;;;;;;;16.18;58.67;101630.69;5007881;28;6984;-76
2022/09/21 08:38:49;;;;;;;;;;;;;;;16.26;59.00;101636.19;4983936;28;6800;-75
2022/09/21 08:41:45;;;;;;;;;;;;;;;16.36;58.60;101633.19;4989931;28;6879;-75
2022/09/21 08:44:22;;;;;;;;;;;;;;;16.50;58.73;101626.03;4987967;28;7445;-75
2022/09/21 08:47:16;;;;;;;;;;;;;;;16.65;58.45;101627.53;4982268;28;6921;-75
2022/09/21 08:49:52;;;;;;;;;;;;;;;16.80;58.57;101628.19;5005224;28;6816;-75
2022/09/21 08:52:20;;;;;;;;;;;;;;;16.96;58.41;101625.34;5004199;28;6879;-75
2022/09/21 08:55:18;;;;;;;;;;;;;;;17.07;58.27;101627.56;4990925;28;6817;-75
2022/09/21 08:57:44;;;;;;;;;;;;;;;17.18;58.17;101622.81;5003499;28;7238;-75
2022/09/21 09:00:17;;;;;;;;;;;;;;;17.28;57.56;101624.06;4988830;28;7201;-75
2022/09/21 09:02:49;;;;;;;;;;;;;;;17.38;57.89;101614.06;5006587;28;11346;-75
2022/09/21 09:05:54;;;;;;;;;;;;;;;17.45;57.63;101616.97;5005764;28;7060;-75
2022/09/21 09:09:17;;;;;;;;;;;;;;;17.54;57.54;101621.63;4992034;28;6824;-75
2022/09/21 09:12:20;;;;;;;;;;;;;;;17.61;57.12;101620.16;4987066;28;7043;-75
2022/09/21 09:15:18;;;;;;;;;;;;;;;17.67;57.15;101617.81;4986104;28;6808;-75
2022/09/21 09:18:08;;;;;;;;;;;;;;;17.74;56.97;101613.72;5007520;28;7056;-75
2022/09/21 09:20:44;;;;;;;;;;;;;;;17.81;56.97;101613.13;5006147;28;7350;-74
2022/09/21 09:23:40;;;;;;;;;;;;;;;17.91;56.75;101623.03;4989075;28;6827;-74
2022/09/21 09:26:26;;;;;;;;;;;;;;;18.00;56.97;101616.41;5006970;28;7397;-75
2022/09/21 09:29:13;;;;;;;;;;;;;;;18.12;56.52;101619.47;4988359;28;7011;-75
2022/09/21 09:31:39;;;;;;;;;;;;;;;18.25;56.83;101622.50;4965710;28;7020;-75
2022/09/21 09:34:19;;;;;;;;;;;;;;;18.33;56.16;101628.88;4983624;28;6800;-76
2022/09/21 09:36:59;;;;;;;;;;;;;;;18.40;55.69;101623.06;5007969;28;6805;-75
2022/09/21 09:39:29;;;;;;;;;;;;;;;18.47;55.41;101618.97;4988097;28;6804;-74
2022/09/21 09:42:58;;;;;;;;;;;;;;;18.54;55.62;101628.75;4977157;28;7291;-74
2022/09/21 09:46:31;;;;;;;;;;;;;;;18.62;54.94;101616.00;4992025;28;7055;-74
2022/09/21 09:49:09;;;;;;;;;;;;;;;18.74;55.37;101618.16;4973322;28;8216;-75
2022/09/21 09:51:38;;;;;;;;;;;;;;;18.85;54.02;101618.53;5002298;28;7307;-74
2022/09/21 09:54:05;;;;;;;;;;;;;;;18.92;53.44;101622.22;5007882;28;7216;-76
2022/09/21 09:56:31;;;;;;;;;;;;;;;18.96;53.53;101619.75;4969092;28;7024;-76
2022/09/21 09:59:06;;;;;;;;;;;;;;;19.05;53.84;101624.38;4988822;28;6994;-76
2022/09/21 10:01:45;;;;;;;;;;;;;;;19.15;53.60;101621.25;4985287;28;7212;-75
2022/09/21 10:04:16;;;;;;;;;;;;;;;19.26;52.70;101624.22;4987104;28;8221;-74
2022/09/21 10:06:43;;;;;;;;;;;;;;;19.35;52.34;101612.34;4987845;28;6788;-75
2022/09/21 10:09:18;;;;;;;;;;;;;;;19.45;52.02;101613.50;4976833;28;7344;-75
2022/09/21 10:11:45;;;;;;;;;;;;;;;19.59;52.49;101616.50;4998531;28;8057;-75
2022/09/21 10:14:20;;;;;;;;;;;;;;;19.89;52.34;101616.53;5006348;28;6824;-75
2022/09/21 10:16:50;;;;;;;;;;;;;;;20.70;51.37;101610.06;4983394;28;6819;-76
2022/09/21 10:19:23;;;;;;;;;;;;;;;21.97;49.92;101612.97;4981333;28;7086;-76
2022/09/21 10:21:57;;;;;;;;;;;;;;;23.34;47.28;101602.25;5002715;28;7187;-75
2022/09/21 10:24:34;;;;;;;;;;;;;;;24.59;46.19;101587.97;4984232;28;7268;-76
2022/09/21 10:27:14;;;;;;;;;;;;;;;25.92;44.27;101591.41;4984188;28;7296;-75
2022/09/21 10:29:46;;;;;;;;;;;;;;;27.02;42.31;101580.13;4986537;28;6804;-76
2022/09/21 10:32:12;;;;;;;;;;;;;;;27.33;40.22;101578.28;4978137;28;6860;-75
2022/09/21 10:34:43;;;;;;;;;;;;;;;27.27;39.65;101580.06;5004122;28;6835;-75
2022/09/21 10:37:28;;;;;;;;;;;;;;;27.46;39.22;101580.00;5001779;28;7046;-75
2022/09/21 10:39:56;;;;;;;;;;;;;;;27.37;38.54;101574.78;4985825;28;7199;-75
2022/09/21 10:42:22;;;;;;;;;;;;;;;27.30;38.22;101582.69;4991802;28;6796;-75
2022/09/21 10:45:03;;;;;;;;;;;;;;;27.01;37.72;101577.53;5002594;28;8076;-75
2022/09/21 10:47:40;;;;;;;;;;;;;;;26.27;37.75;101584.50;4993091;28;6993;-75
2022/09/21 10:50:24;;;;;;;;;;;;;;;25.48;38.38;101582.47;5010033;28;6871;-75
2022/09/21 10:52:58;;;;;;;;;;;;;;;25.59;39.23;101584.31;4990411;28;6949;-75
2022/09/21 10:55:27;;;;;;;;;;;;;;;26.14;38.28;101578.31;4990252;28;7251;-75
2022/09/21 10:57:54;;;;;;;;;;;;;;;26.50;37.48;101580.16;4985380;28;6853;-75
2022/09/21 11:00:34;;;;;;;;;;;;;;;26.84;37.24;101572.22;4979208;28;6792;-75
2022/09/21 11:03:28;;;;;;;;;;;;;;;27.09;36.31;101569.59;4978116;28;7031;-75
2022/09/21 11:06:03;;;;;;;;;;;;;;;27.55;36.45;101573.84;5002370;28;7034;-76
2022/09/21 11:09:05;;;;;;;;;;;;;;;28.57;35.14;101568.84;4986652;28;6993;-75
2022/09/21 11:11:46;;;;;;;;;;;;;;;29.55;34.16;101574.00;4988254;28;7238;-76
2022/09/21 11:14:43;;;;;;;;;;;;;;;30.51;32.78;101563.78;5002915;28;6856;-75
2022/09/21 11:17:45;;;;;;;;;;;;;;;31.51;31.85;101557.50;5000528;28;6804;-75
2022/09/21 11:21:06;;;;;;;;;;;;;;;32.05;30.57;101559.84;5001942;28;7208;-77
2022/09/21 11:24:11;;;;;;;;;;;;;;;32.36;29.48;101556.47;4974837;28;7925;-75
2022/09/21 11:26:53;;;;;;;;;;;;;;;32.61;29.45;101556.72;4998008;28;6896;-75
2022/09/21 11:29:35;;;;;;;;;;;;;;;32.35;29.08;101560.00;4987790;28;6880;-75
2022/09/21 11:32:18;;;;;;;;;;;;;;;31.12;28.91;101560.03;4970157;28;7008;-76
2022/09/21 11:35:24;;;;;;;;;;;;;;;29.91;30.07;101562.94;4986068;28;6819;-76
2022/09/21 11:38:05;;;;;;;;;;;;;;;29.83;30.51;101567.47;5006618;28;6985;-75
2022/09/21 11:41:13;;;;;;;;;;;;;;;29.35;30.08;101563.66;4999587;28;7000;-75
2022/09/21 11:43:44;;;;;;;;;;;;;;;28.19;30.74;101560.34;5004652;28;6816;-75
2022/09/21 11:46:22;;;;;;;;;;;;;;;27.27;31.90;101564.28;5000830;28;6788;-76
2022/09/21 11:49:46;;;;;;;;;;;;;;;26.39;32.81;101552.13;4983844;28;6799;-76
2022/09/21 11:52:36;;;;;;;;;;;;;;;25.70;33.63;101568.59;4987166;28;6964;-76
2022/09/21 11:55:13;;;;;;;;;;;;;;;25.64;33.99;101559.81;4982654;28;6796;-75
2022/09/21 11:58:17;;;;;;;;;;;;;;;26.04;34.16;101556.44;5011299;28;6863;-75
2022/09/21 12:01:24;;;;;;;;;;;;;;;27.31;32.66;101544.97;4967043;28;6863;-74
2022/09/21 12:04:14;;;;;;;;;;;;;;;28.40;31.28;101535.59;5007912;28;6823;-74
2022/09/21 12:07:01;;;;;;;;;;;;;;;28.58;30.17;101537.16;4989371;28;7350;-76
2022/09/21 12:10:00;;;;;;;;;;;;;;;28.34;30.19;101533.88;4985714;28;7156;-75
2022/09/21 12:12:57;;;;;;;;;;;;;;;27.47;30.89;101531.75;5002067;28;7239;-75
2022/09/21 12:16:00;;;;;;;;;;;;;;;27.06;31.66;101532.78;4964606;28;6989;-75
2022/09/21 12:19:16;;;;;;;;;;;;;;;27.01;31.94;101528.41;5002391;28;6872;-75
2022/09/21 12:22:02;;;;;;;;;;;;;;;26.79;31.95;101526.69;4987412;28;7390;-74
2022/09/21 12:24:43;;;;;;;;;;;;;;;26.37;32.35;101529.34;5004209;28;10033;-77
2022/09/21 12:27:31;;;;;;;;;;;;;;;25.88;32.73;101533.63;4991891;28;7291;-76
2022/09/21 12:30:22;;;;;;;;;;;;;;;25.31;32.89;101526.41;5005826;28;6812;-76
2022/09/21 12:32:52;;;;;;;;;;;;;;;24.86;33.22;101528.81;4986835;28;11056;-75
2022/09/21 12:35:38;;;;;;;;;;;;;;;24.29;33.93;101530.09;5005296;28;6815;-75
2022/09/21 12:38:38;;;;;;;;;;;;;;;23.82;34.10;101528.72;4999499;28;6804;-75
2022/09/21 12:41:40;;;;;;;;;;;;;;;23.44;34.66;101524.81;4989598;28;7016;-75
2022/09/21 12:44:50;;;;;;;;;;;;;;;23.16;35.04;101533.13;5003534;28;7011;-75
2022/09/21 12:47:28;;;;;;;;;;;;;;;22.98;35.21;101528.53;4988940;28;7636;-75
2022/09/21 12:50:04;;;;;;;;;;;;;;;22.89;35.19;101531.00;5008854;28;6970;-75
2022/09/21 12:52:32;;;;;;;;;;;;;;;22.83;35.25;101526.56;4990336;28;7078;-75
2022/09/21 12:55:29;;;;;;;;;;;;;;;22.78;35.52;101525.59;4971208;28;6988;-76
2022/09/21 12:58:34;;;;;;;;;;;;;;;22.66;35.83;101517.56;4984209;28;7151;-76
2022/09/21 13:01:07;;;;;;;;;;;;;;;22.58;35.86;101510.50;4984763;28;6819;-76
2022/09/21 13:03:53;;;;;;;;;;;;;;;22.56;35.94;101516.56;4996441;28;7168;-76
2022/09/21 13:06:34;;;;;;;;;;;;;;;22.52;36.08;101513.03;5002436;28;7493;-75
2022/09/21 13:09:02;;;;;;;;;;;;;;;22.40;35.69;101507.53;4986709;28;6996;-74
2022/09/21 13:11:33;;;;;;;;;;;;;;;22.30;35.96;101507.38;4985828;28;7821;-74
2022/09/21 13:14:03;;;;;;;;;;;;;;;22.28;36.38;101495.19;4988601;28;7065;-76
2022/09/21 13:16:35;;;;;;;;;;;;;;;22.35;36.49;101499.63;4988367;28;6863;-76
2022/09/21 13:19:23;;;;;;;;;;;;;;;22.52;36.38;101499.97;4987998;28;7101;-76
2022/09/21 13:22:17;;;;;;;;;;;;;;;22.81;36.01;101491.69;4968118;28;7960;-76
2022/09/21 13:25:02;;;;;;;;;;;;;;;22.96;34.89;101490.13;4999302;28;6800;-76
2022/09/21 13:27:59;;;;;;;;;;;;;;;23.34;35.22;101488.94;4982745;28;8566;-76
2022/09/21 13:30:44;;;;;;;;;;;;;;;24.03;34.78;101488.78;4969886;28;7059;-76
2022/09/21 13:33:18;;;;;;;;;;;;;;;24.53;34.21;101481.38;4988717;28;6788;-76
2022/09/21 13:35:53;;;;;;;;;;;;;;;24.71;33.87;101482.38;5001129;28;7196;-76
2022/09/21 13:38:52;;;;;;;;;;;;;;;24.64;33.93;101484.94;5003639;28;6808;-76